createdAt,value
2023-01-13T00:01:20.154Z,8.7
2023-01-13T00:03:21.527Z,8.6
2023-01-13T00:05:22.909Z,8.6
2023-01-13T00:07:27.573Z,8.5
2023-01-13T00:09:28.943Z,8.4
2023-01-13T00:11:30.295Z,8.4
2023-01-13T00:13:53.074Z,8.3
2023-01-13T00:15:54.536Z,8.3
2023-01-13T00:17:55.793Z,8.2
2023-01-13T00:20:00.508Z,8.2
2023-01-13T00:22:01.889Z,8.2
2023-01-13T00:24:03.214Z,8.1
2023-01-13T00:26:04.570Z,8
2023-01-13T00:28:05.871Z,8
2023-01-13T00:30:07.282Z,8
2023-01-13T00:32:08.593Z,7.9
2023-01-13T00:34:13.294Z,7.7
2023-01-13T00:36:14.628Z,7.7
2023-01-13T00:38:16.021Z,7.7
2023-01-13T00:40:17.382Z,7.6
2023-01-13T00:42:18.757Z,7.5
2023-01-13T00:44:20.123Z,7.5
2023-01-13T00:46:21.558Z,7.5
2023-01-13T00:48:26.090Z,7.4
2023-01-13T00:50:27.448Z,7.4
2023-01-13T00:52:28.835Z,7.4
2023-01-13T00:54:30.153Z,7.3
2023-01-13T00:56:40.167Z,7.3
2023-01-13T00:58:32.884Z,7.3
2023-01-13T01:00:34.248Z,7.4
2023-01-13T01:02:38.876Z,7.5
2023-01-13T01:06:41.587Z,7.5
2023-01-13T01:07:44.063Z,7.5
2023-01-13T01:09:45.230Z,7.6
2023-01-13T01:11:46.592Z,7.6
2023-01-13T01:13:47.943Z,7.5
2023-01-13T01:15:52.634Z,7.4
2023-01-13T01:17:53.948Z,7.4
2023-01-13T01:19:55.280Z,7.4
2023-01-13T01:21:56.656Z,7.4
2023-01-13T01:23:57.975Z,7.4
2023-01-13T01:25:59.349Z,7.4
2023-01-13T01:28:00.660Z,7.5
2023-01-13T01:30:05.392Z,7.4
2023-01-13T01:32:06.683Z,7.5
2023-01-13T01:34:08.034Z,7.5
2023-01-13T01:36:09.419Z,7.5
2023-01-13T01:38:10.735Z,7.4
2023-01-13T01:40:12.073Z,7.4
2023-01-13T01:42:13.483Z,7.5
2023-01-13T01:44:18.157Z,7.5
2023-01-13T01:46:19.528Z,7.5
2023-01-13T01:48:20.828Z,7.4
2023-01-13T01:50:22.171Z,7.4
2023-01-13T01:52:23.527Z,7.4
2023-01-13T01:54:24.935Z,7.4
2023-01-13T01:56:26.233Z,7.4
2023-01-13T01:58:30.897Z,7.4
2023-01-13T02:00:32.340Z,7.5
2023-01-13T02:02:33.783Z,7.5
2023-01-13T02:03:35.929Z,7.5
2023-01-13T02:05:37.312Z,7.3
2023-01-13T02:07:38.684Z,7.4
2023-01-13T02:09:39.963Z,7.5
2023-01-13T02:11:44.667Z,7.6
2023-01-13T02:13:45.984Z,7.8
2023-01-13T02:15:47.359Z,7.8
2023-01-13T02:21:51.367Z,8.2
2023-01-13T02:23:52.786Z,8.1
2023-01-13T02:25:57.435Z,7.9
2023-01-13T02:27:58.760Z,8
2023-01-13T02:30:00.160Z,8.1
2023-01-13T02:32:01.472Z,8.1
2023-01-13T02:34:02.848Z,8.2
2023-01-13T02:36:04.172Z,8
2023-01-13T02:38:05.525Z,8
2023-01-13T02:40:10.179Z,8
2023-01-13T02:42:11.521Z,8
2023-01-13T02:54:22.904Z,8
2023-01-13T02:56:24.282Z,7.9
2023-01-13T02:59:27.956Z,8.1
2023-01-13T03:01:29.434Z,8.1
2023-01-13T03:03:30.653Z,8.2
2023-01-13T03:05:32.089Z,8.1
2023-01-13T03:07:36.626Z,8.2
2023-01-13T03:09:38.006Z,8.2
2023-01-13T03:11:39.355Z,8.1
2023-01-13T03:13:40.724Z,8.2
2023-01-13T03:15:42.032Z,8.2
2023-01-13T03:17:43.391Z,8.2
2023-01-13T03:19:44.751Z,8.2
2023-01-13T03:21:49.400Z,8.3
2023-01-13T03:23:50.781Z,8.3
2023-01-13T03:25:52.107Z,8.2
2023-01-13T03:27:53.470Z,8.2
2023-01-13T03:29:54.818Z,8.2
2023-01-13T03:31:56.206Z,8.3
2023-01-13T03:36:02.191Z,8.3
2023-01-13T03:38:03.524Z,8.3
2023-01-13T03:40:04.867Z,8.4
2023-01-13T03:42:06.255Z,8.4
2023-01-13T03:50:14.947Z,8.4
2023-01-13T03:58:41.895Z,8.3
2023-01-13T04:00:43.221Z,8.2
2023-01-13T04:02:47.856Z,8.3
2023-01-13T04:08:53.445Z,8.4
2023-01-13T04:10:54.816Z,8.2
2023-01-13T04:12:56.151Z,8.2
2023-01-13T04:14:57.557Z,8.3
2023-01-13T04:17:02.171Z,8.3
2023-01-13T04:19:03.538Z,8.2
2023-01-13T04:21:04.883Z,8.3
2023-01-13T04:23:06.222Z,8.3
2023-01-13T04:27:08.945Z,8.2
2023-01-13T04:29:10.324Z,8.1
2023-01-13T04:31:14.983Z,8.4
2023-01-13T04:33:16.334Z,8.3
2023-01-13T04:35:17.691Z,8.2
2023-01-13T04:37:19.048Z,8.2
2023-01-13T04:39:20.408Z,8
2023-01-13T04:41:21.734Z,8.1
2023-01-13T04:43:23.070Z,8.2
2023-01-13T04:45:27.775Z,8.1
2023-01-13T04:47:29.111Z,8
2023-01-13T04:49:30.474Z,8
2023-01-13T04:50:32.761Z,8
2023-01-13T04:52:34.145Z,7.9
2023-01-13T04:54:35.497Z,8
2023-01-13T04:56:36.853Z,7.8
2023-01-13T04:58:41.563Z,7.8
2023-01-13T05:00:42.869Z,7.7
2023-01-13T05:02:44.252Z,7.8
2023-01-13T05:04:45.667Z,7.8
2023-01-13T05:06:46.949Z,7.8
2023-01-13T05:12:54.274Z,7.8
2023-01-13T05:14:55.647Z,7.8
2023-01-13T05:16:56.991Z,7.7
2023-01-13T05:18:58.341Z,7.7
2023-01-13T05:20:59.689Z,7.7
2023-01-13T05:23:01.024Z,7.7
2023-01-13T05:25:02.385Z,7.8
2023-01-13T05:27:07.026Z,7.7
2023-01-13T05:29:08.397Z,7.7
2023-01-13T05:31:09.874Z,7.7
2023-01-13T05:33:11.091Z,7.8
2023-01-13T05:35:12.458Z,7.7
2023-01-13T05:39:15.156Z,7.9
2023-01-13T05:41:19.810Z,7.8
2023-01-13T05:43:21.241Z,7.8
2023-01-13T05:45:22.515Z,7.9
2023-01-13T05:46:24.897Z,7.8
2023-01-13T05:48:26.201Z,7.8
2023-01-13T05:50:27.533Z,7.9
2023-01-13T05:52:28.903Z,7.7
2023-01-13T05:54:33.574Z,7.8
2023-01-13T05:56:34.952Z,7.8
2023-01-13T05:58:36.282Z,7.7
2023-01-13T06:00:37.646Z,7.9
2023-01-13T06:02:39.026Z,7.9
2023-01-13T06:04:40.448Z,8
2023-01-13T06:06:41.704Z,8.1
2023-01-13T06:08:46.370Z,8
2023-01-13T06:10:47.747Z,8
2023-01-13T06:12:49.062Z,8
2023-01-13T06:14:50.459Z,7.8
2023-01-13T06:16:51.788Z,7.9
2023-01-13T06:18:53.106Z,7.9
2023-01-13T06:20:54.516Z,7.9
2023-01-13T06:22:59.152Z,7.9
2023-01-13T06:25:00.500Z,7.8
2023-01-13T06:27:01.868Z,7.7
2023-01-13T06:29:03.197Z,7.7
2023-01-13T06:31:04.607Z,7.7
2023-01-13T06:33:05.912Z,7.8
2023-01-13T06:35:07.239Z,7.8
2023-01-13T06:37:11.907Z,7.8
2023-01-13T06:39:13.231Z,7.8
2023-01-13T06:41:14.582Z,7.9
2023-01-13T06:42:16.929Z,7.9
2023-01-13T06:44:18.306Z,7.8
2023-01-13T06:46:19.672Z,7.7
2023-01-13T06:48:20.971Z,7.7
2023-01-13T06:50:25.665Z,7.9
2023-01-13T06:52:26.976Z,7.9
2023-01-13T06:54:28.353Z,7.9
2023-01-13T06:56:29.713Z,7.9
2023-01-13T06:58:31.079Z,7.9
2023-01-13T07:00:32.475Z,8.1
2023-01-13T07:02:33.812Z,8
2023-01-13T07:04:38.400Z,8
2023-01-13T07:06:39.788Z,7.9
2023-01-13T07:08:41.129Z,8
2023-01-13T07:10:42.480Z,7.9
2023-01-13T07:12:43.845Z,7.9
2023-01-13T07:14:45.196Z,7.9
2023-01-13T07:16:46.557Z,7.9
2023-01-13T07:18:51.186Z,8
2023-01-13T07:20:52.536Z,7.9
2023-01-13T07:22:53.944Z,7.9
2023-01-13T07:26:56.640Z,8
2023-01-13T07:28:58.009Z,7.9
2023-01-13T07:30:59.344Z,8
2023-01-13T07:33:04.030Z,7.9
2023-01-13T07:35:05.423Z,8
2023-01-13T07:37:06.759Z,8
2023-01-13T07:39:35.612Z,8.1
2023-01-13T07:41:37.011Z,8.1
2023-01-13T07:43:38.344Z,8
2023-01-13T07:45:43.065Z,8.1
2023-01-13T07:47:44.343Z,8.1
2023-01-13T07:49:45.720Z,8.1
2023-01-13T07:51:47.115Z,8.1
2023-01-13T07:53:48.442Z,8
2023-01-13T07:55:49.797Z,8
2023-01-13T07:57:51.175Z,8
2023-01-13T07:59:55.831Z,8.1
2023-01-13T08:01:57.393Z,8.1
2023-01-13T08:03:58.545Z,8.1
2023-01-13T08:05:59.906Z,8.1
2023-01-13T08:10:02.631Z,8.2
2023-01-13T08:12:04.015Z,8.2
2023-01-13T08:14:08.643Z,8.1
2023-01-13T08:16:09.982Z,8.1
2023-01-13T08:18:11.365Z,8.1
2023-01-13T08:20:12.726Z,8.2
2023-01-13T08:22:14.109Z,8.1
2023-01-13T08:24:15.415Z,8.2
2023-01-13T08:26:16.804Z,8.1
2023-01-13T08:28:21.412Z,8.1
2023-01-13T08:30:22.816Z,8.1
2023-01-13T08:32:24.126Z,8.2
2023-01-13T08:33:26.481Z,8.1
2023-01-13T08:35:27.824Z,8.1
2023-01-13T08:41:35.197Z,7.9
2023-01-13T08:45:37.914Z,7.9
2023-01-13T08:47:39.268Z,8.1
2023-01-13T08:49:40.622Z,7.9
2023-01-13T08:51:41.961Z,7.7
2023-01-13T08:53:43.341Z,7.6
2023-01-13T08:57:49.325Z,7.9
2023-01-13T08:59:50.692Z,7.8
2023-01-13T09:05:54.709Z,7.1
2023-01-13T09:07:56.044Z,7.2
2023-01-13T09:10:00.725Z,7.2
2023-01-13T09:12:02.090Z,7.2
2023-01-13T09:14:03.657Z,7.3
2023-01-13T09:16:04.791Z,7.2
2023-01-13T09:20:07.490Z,7.1
2023-01-13T09:22:08.825Z,7
2023-01-13T09:24:13.479Z,7
2023-01-13T09:26:14.798Z,7
2023-01-13T09:29:18.519Z,6.8
2023-01-13T09:31:20.005Z,6.8
2023-01-13T09:33:21.230Z,6.6
2023-01-13T09:35:22.592Z,6.7
2023-01-13T09:39:28.589Z,6.8
2023-01-13T09:41:29.927Z,6.8
2023-01-13T09:43:31.320Z,6.7
2023-01-13T09:45:32.637Z,6.7
2023-01-13T09:47:34.003Z,6.6
2023-01-13T09:51:40.112Z,6.6
2023-01-13T09:53:41.360Z,6.6
2023-01-13T10:01:48.334Z,6.6
2023-01-13T10:03:49.781Z,6.6
2023-01-13T10:07:55.734Z,6.6
2023-01-13T10:11:58.446Z,6.6
2023-01-13T10:13:59.839Z,6.5
2023-01-13T10:16:03.029Z,6.6
2023-01-13T10:18:02.556Z,6.5
2023-01-13T10:22:09.500Z,6.6
2023-01-13T10:24:09.890Z,6.6
2023-01-13T10:25:12.220Z,6.6
2023-01-13T10:27:13.570Z,6.6
2023-01-13T10:29:14.921Z,6.7
2023-01-13T10:31:16.372Z,6.8
2023-01-13T10:33:20.936Z,6.8
2023-01-13T10:35:22.291Z,6.8
2023-01-13T10:37:23.645Z,7
2023-01-13T10:39:24.983Z,7
2023-01-13T10:41:26.323Z,6.9
2023-01-13T10:43:27.710Z,6.9
2023-01-13T10:45:29.058Z,6.9
2023-01-13T10:47:33.709Z,6.8
2023-01-13T10:49:35.005Z,6.8
2023-01-13T10:51:36.405Z,6.7
2023-01-13T10:53:37.776Z,6.7
2023-01-13T10:55:39.095Z,6.7
2023-01-13T10:57:40.434Z,6.8
2023-01-13T10:59:41.781Z,6.9
2023-01-13T11:03:47.801Z,6.9
2023-01-13T11:05:49.115Z,6.9
2023-01-13T11:07:50.504Z,6.9
2023-01-13T11:11:53.206Z,6.9
2023-01-13T11:13:54.515Z,6.9
2023-01-13T11:15:59.186Z,6.8
2023-01-13T11:18:00.521Z,6.8
2023-01-13T11:26:27.542Z,6.8
2023-01-13T11:28:32.215Z,6.7
2023-01-13T11:30:33.577Z,6.8
2023-01-13T11:32:34.893Z,6.9
2023-01-13T11:34:36.270Z,7
2023-01-13T11:36:37.615Z,7
2023-01-13T11:38:38.966Z,7
2023-01-13T11:40:40.313Z,7
2023-01-13T11:42:44.957Z,7.1
2023-01-13T11:46:47.843Z,7.2
2023-01-13T11:48:48.993Z,7.2
2023-01-13T11:50:50.356Z,7.2
2023-01-13T11:52:51.692Z,7.2
2023-01-13T11:54:53.081Z,7.3
2023-01-13T12:05:03.126Z,7.2
2023-01-13T12:09:05.795Z,7.3
2023-01-13T12:15:13.167Z,7.2
2023-01-13T12:16:15.549Z,7.2
2023-01-13T12:18:16.905Z,7.2
2023-01-13T12:20:18.237Z,7.3
2023-01-13T12:22:19.604Z,7.3
2023-01-13T12:24:24.214Z,7.3
2023-01-13T12:26:25.578Z,7.3
2023-01-13T12:28:26.967Z,7.3
2023-01-13T12:30:28.304Z,7.3
2023-01-13T12:32:29.675Z,7.2
2023-01-13T12:34:31.013Z,7.3
2023-01-13T12:36:32.388Z,7.4
2023-01-13T12:38:37.081Z,7.5
2023-01-13T12:40:38.404Z,7.5
2023-01-13T12:42:39.745Z,7.3
2023-01-13T12:44:41.109Z,7.5
2023-01-13T12:46:42.424Z,7.5
2023-01-13T12:48:43.791Z,7.6
2023-01-13T12:50:45.122Z,7.6
2023-01-13T12:52:49.842Z,7.5
2023-01-13T12:54:51.135Z,7.6
2023-01-13T12:56:52.513Z,7.4
2023-01-13T12:58:53.871Z,7.7
2023-01-13T13:00:55.257Z,8
2023-01-13T13:02:56.642Z,8.2
2023-01-13T13:04:57.915Z,8.4
2023-01-13T13:07:02.616Z,8.6
2023-01-13T13:09:04.347Z,8.6
2023-01-13T13:11:05.291Z,8.7
2023-01-13T13:12:07.641Z,8.7
2023-01-13T13:14:09.008Z,8.7
2023-01-13T13:16:10.388Z,8.7
2023-01-13T13:18:11.753Z,8.7
2023-01-13T13:20:16.416Z,8.8
2023-01-13T13:22:17.808Z,8.8
2023-01-13T13:24:19.147Z,8.8
2023-01-13T13:26:20.533Z,8.8
2023-01-13T13:28:21.844Z,8.8
2023-01-13T13:30:23.180Z,8.9
2023-01-13T13:32:24.581Z,8.9
2023-01-13T13:34:29.214Z,8.9
2023-01-13T13:36:30.557Z,8.9
2023-01-13T13:38:31.893Z,9
2023-01-13T13:40:33.251Z,9
2023-01-13T13:42:34.630Z,9
2023-01-13T13:46:37.407Z,9.1
2023-01-13T13:48:41.863Z,9.1
2023-01-13T13:50:43.265Z,9.1
2023-01-13T13:52:44.574Z,9.2
2023-01-13T13:54:45.952Z,9.2
2023-01-13T13:58:48.651Z,9.3
2023-01-13T14:00:50.018Z,9.3
2023-01-13T14:02:54.672Z,9.3
2023-01-13T14:04:56.042Z,9.3
2023-01-13T14:06:57.377Z,9.3
2023-01-13T14:07:59.689Z,9.3
2023-01-13T14:12:02.387Z,9.3
2023-01-13T14:14:03.764Z,9.3
2023-01-13T14:16:08.448Z,9.2
2023-01-13T14:22:12.494Z,9.2
2023-01-13T14:26:15.222Z,9.2
2023-01-13T14:28:16.574Z,9.2
2023-01-13T14:30:21.227Z,9.2
2023-01-13T14:32:22.584Z,9.2
2023-01-13T14:34:31.329Z,9.2
2023-01-13T14:36:25.308Z,9.2
2023-01-13T14:38:26.625Z,9.2
2023-01-13T14:40:27.986Z,9.2
2023-01-13T14:42:29.361Z,9.2
2023-01-13T14:44:34.035Z,9
2023-01-13T14:46:35.378Z,9
2023-01-13T14:48:36.800Z,9.2
2023-01-13T14:50:38.190Z,9.2
2023-01-13T14:52:39.469Z,9.1
2023-01-13T14:54:40.818Z,9
2023-01-13T14:56:42.190Z,9.1
2023-01-13T14:58:46.852Z,9
2023-01-13T15:00:48.214Z,9
2023-01-13T15:02:49.675Z,8.9
2023-01-13T15:05:18.242Z,9
2023-01-13T15:07:19.593Z,9
2023-01-13T15:09:20.954Z,9.1
2023-01-13T15:11:25.879Z,9.1
2023-01-13T15:13:26.975Z,9
2023-01-13T15:15:28.353Z,8.9
2023-01-13T15:17:29.695Z,9
2023-01-13T15:19:31.034Z,8.8
2023-01-13T15:21:32.415Z,8.7
2023-01-13T15:23:33.755Z,8.8
2023-01-13T15:25:38.462Z,8.7
2023-01-13T15:27:39.831Z,8.6
2023-01-13T15:29:41.164Z,8.6
2023-01-13T15:31:42.547Z,8.5
2023-01-13T15:33:43.902Z,8.5
2023-01-13T15:35:45.262Z,8.4
2023-01-13T15:37:46.604Z,8.4
2023-01-13T15:39:51.300Z,8.5
2023-01-13T15:41:52.623Z,8.5
2023-01-13T15:43:54.041Z,8.6
2023-01-13T15:45:56.956Z,8.6
2023-01-13T15:47:58.314Z,8.6
2023-01-13T15:49:59.683Z,8.6
2023-01-13T15:52:01.030Z,8.6
2023-01-13T15:54:05.680Z,8.6
2023-01-13T15:56:07.072Z,8.6
2023-01-13T15:58:08.486Z,8.6
2023-01-13T15:59:10.744Z,8.7
2023-01-13T16:01:12.201Z,8.7
2023-01-13T16:03:13.552Z,8.7
2023-01-13T16:05:14.826Z,8.7
2023-01-13T16:07:19.450Z,8.8
2023-01-13T16:11:22.197Z,8.8
2023-01-13T16:13:23.557Z,8.8
2023-01-13T16:15:24.907Z,8.9
2023-01-13T16:17:26.287Z,8.1
2023-01-13T16:23:33.689Z,7.5
2023-01-13T16:29:37.770Z,7.9
2023-01-13T16:31:39.262Z,8.1
2023-01-13T16:33:40.497Z,8.3
2023-01-13T16:36:11.913Z,8.4
2023-01-13T16:37:46.545Z,8.4
2023-01-13T16:39:47.910Z,8.6
2023-01-13T16:47:53.355Z,8.3
2023-01-13T16:49:57.991Z,8.6
2023-01-13T16:51:59.376Z,8.6
2023-01-13T16:54:00.761Z,8.2
2023-01-13T16:55:03.106Z,7.9
2023-01-13T16:57:04.487Z,7.7
2023-01-13T16:59:05.786Z,7.9
2023-01-13T17:01:07.322Z,8.2
2023-01-13T17:03:11.825Z,8.3
2023-01-13T17:05:13.182Z,8.3
2023-01-13T17:07:14.537Z,8.2
2023-01-13T17:09:15.880Z,8.4
2023-01-13T17:11:17.238Z,8.3
2023-01-13T17:13:19.336Z,8.3
2023-01-13T17:15:20.660Z,8.2
2023-01-13T17:17:25.351Z,7.3
2023-01-13T17:19:26.739Z,7.2
2023-01-13T17:21:28.114Z,7.2
2023-01-13T17:23:29.441Z,7.2
2023-01-13T17:25:30.812Z,7.1
2023-01-13T17:29:33.522Z,6.7
2023-01-13T17:31:38.287Z,7
2023-01-13T17:33:39.575Z,6.9
2023-01-13T17:35:40.916Z,6.9
2023-01-13T17:37:42.269Z,6.8
2023-01-13T17:39:43.598Z,7
2023-01-13T17:41:44.981Z,7
2023-01-13T17:43:46.328Z,6.9
2023-01-13T17:47:52.331Z,7.1
2023-01-13T17:49:53.679Z,7.1
2023-01-13T17:50:55.978Z,7.2
2023-01-13T17:52:57.330Z,7.1
2023-01-13T17:54:58.669Z,7.2
2023-01-13T17:57:00.041Z,7.2
2023-01-13T17:59:04.681Z,7.2
2023-01-13T18:01:06.161Z,7.2
2023-01-13T18:03:07.394Z,7.1
2023-01-13T18:05:08.752Z,7.3
2023-01-13T18:07:10.090Z,7.3
2023-01-13T18:09:11.441Z,7.2
2023-01-13T18:11:12.808Z,7.2
2023-01-13T18:13:17.403Z,7.2
2023-01-13T18:15:18.810Z,7.2
2023-01-13T18:17:20.228Z,7.1
2023-01-13T18:19:21.573Z,7.2
2023-01-13T18:21:22.897Z,7.2
2023-01-13T18:23:24.258Z,7.2
2023-01-13T18:25:25.619Z,7.3
2023-01-13T18:29:31.586Z,7.2
2023-01-13T18:31:32.936Z,7.3
2023-01-13T18:33:34.294Z,7.4
2023-01-13T18:35:35.620Z,7.4
2023-01-13T18:37:36.973Z,7.4
2023-01-13T18:39:38.354Z,7.3
2023-01-13T18:43:44.337Z,7.3
2023-01-13T18:45:45.676Z,7.2
2023-01-13T18:50:03.833Z,7.1
2023-01-13T18:52:05.194Z,7.1
2023-01-13T18:54:09.841Z,7.1
2023-01-13T19:00:13.925Z,7.1
2023-01-13T19:04:16.623Z,7
2023-01-13T19:06:17.969Z,6.9
2023-01-13T19:08:22.629Z,7
2023-01-13T19:10:23.958Z,6.9
2023-01-13T19:12:25.318Z,6.9
2023-01-13T19:14:26.661Z,7
2023-01-13T19:16:28.012Z,6.9
2023-01-13T19:18:29.356Z,7
2023-01-13T19:20:30.689Z,7.1
2023-01-13T19:22:35.336Z,6.9
2023-01-13T19:24:36.686Z,6.9
2023-01-13T19:26:38.037Z,6.9
2023-01-13T19:28:39.367Z,7
2023-01-13T19:30:40.733Z,7
2023-01-13T19:32:42.049Z,6.9
2023-01-13T19:34:43.439Z,7
2023-01-13T19:36:48.084Z,7
2023-01-13T19:43:54.484Z,6.9
2023-01-13T19:45:55.834Z,6.9
2023-01-13T19:54:04.480Z,7
2023-01-13T19:56:05.799Z,7.1
2023-01-13T19:58:07.145Z,7.1
2023-01-13T20:00:08.496Z,7.2
2023-01-13T20:06:15.869Z,7.2
2023-01-13T20:08:17.197Z,7.2
2023-01-13T20:16:22.718Z,7.3
2023-01-13T20:18:27.029Z,7.4
2023-01-13T20:20:28.380Z,7.4
2023-01-13T20:22:29.713Z,7.4
2023-01-13T20:24:31.118Z,7.4
2023-01-13T20:26:32.414Z,7.5
2023-01-13T20:28:33.760Z,7.3
2023-01-13T20:30:35.125Z,6.7
2023-01-13T20:32:39.766Z,6.6
2023-01-13T20:34:41.091Z,6.6
2023-01-13T20:36:42.441Z,6.5
2023-01-13T20:37:44.785Z,6.5
2023-01-13T20:39:46.130Z,6.5
2023-01-13T20:41:47.462Z,6.5
2023-01-13T20:43:48.831Z,6.6
2023-01-13T20:45:53.473Z,6.6
2023-01-13T20:47:54.824Z,6.6
2023-01-13T20:49:56.137Z,6.6
2023-01-13T20:51:57.532Z,6.6
2023-01-13T20:53:58.850Z,6.6
2023-01-13T20:56:00.190Z,6.7
2023-01-13T20:58:01.543Z,6.6
2023-01-13T21:00:06.173Z,6.4
2023-01-13T21:02:07.515Z,6.5
2023-01-13T21:04:08.959Z,6.5
2023-01-13T21:06:10.254Z,6.5
2023-01-13T21:08:11.598Z,6.7
2023-01-13T21:10:12.932Z,6.6
2023-01-13T21:16:20.452Z,6.7
2023-01-13T21:18:21.656Z,6.7
2023-01-13T21:20:23.018Z,6.7
2023-01-13T21:26:27.035Z,6.9
2023-01-13T21:30:33.028Z,7
2023-01-13T21:32:34.358Z,7
2023-01-13T21:33:36.719Z,7
2023-01-13T21:35:39.636Z,7
2023-01-13T21:37:40.969Z,7
2023-01-13T21:39:42.311Z,7
2023-01-13T21:41:46.956Z,6.8
2023-01-13T21:43:48.335Z,6.9
2023-01-13T21:45:49.747Z,7
2023-01-13T21:47:51.052Z,7
2023-01-13T21:53:55.124Z,6.9
2023-01-13T21:55:59.777Z,6.9
2023-01-13T21:58:01.121Z,7
2023-01-13T22:00:02.463Z,6.9
2023-01-13T22:04:05.156Z,6.9
2023-01-13T22:06:06.556Z,7
2023-01-13T22:08:07.903Z,6.9
2023-01-13T22:10:12.509Z,7
2023-01-13T22:12:13.860Z,7.1
2023-01-13T22:14:15.197Z,7
2023-01-13T22:16:16.655Z,6.9
2023-01-13T22:18:17.894Z,6.9
2023-01-13T22:20:19.264Z,7
2023-01-13T22:22:20.609Z,7.1
2023-01-13T22:24:25.236Z,7.2
2023-01-13T22:26:26.559Z,7.2
2023-01-13T22:28:27.902Z,7.2
2023-01-13T22:30:54.698Z,7.1
2023-01-13T22:32:56.069Z,7.1
2023-01-13T22:34:57.375Z,7.2
2023-01-13T22:37:02.029Z,7.2
2023-01-13T22:39:03.392Z,7.2
2023-01-13T22:41:04.754Z,7.2
2023-01-13T22:43:06.088Z,7.2
2023-01-13T22:49:10.134Z,7.1
2023-01-13T22:51:14.793Z,7.1
2023-01-13T22:53:16.135Z,7.1
2023-01-13T22:59:20.139Z,7.2
2023-01-13T23:01:21.583Z,7.2
2023-01-13T23:03:22.811Z,7.2
2023-01-13T23:05:27.447Z,7.1
2023-01-13T23:07:28.845Z,7.2
2023-01-13T23:09:30.138Z,7.3
2023-01-13T23:11:31.477Z,7.3
2023-01-13T23:13:32.805Z,7.3
2023-01-13T23:15:34.155Z,7.2
2023-01-13T23:17:35.542Z,7.2
2023-01-13T23:19:40.183Z,7.3
2023-01-13T23:21:41.512Z,7.2
2023-01-13T23:23:42.876Z,7.2
2023-01-13T23:26:46.542Z,7.2
2023-01-13T23:28:47.873Z,7.2
2023-01-13T23:30:49.301Z,7.3
2023-01-13T23:34:55.319Z,7.1
2023-01-13T23:38:58.007Z,7.2
2023-01-13T23:40:59.368Z,7.2
2023-01-13T23:43:00.733Z,7.2
2023-01-13T23:45:02.046Z,7.2
2023-01-13T23:47:06.704Z,7.1
2023-01-13T23:49:08.029Z,7.2
2023-01-13T23:51:09.366Z,7.1
2023-01-13T23:53:10.708Z,7.2
2023-01-13T23:55:12.064Z,7.1
2023-01-13T23:57:13.413Z,7
2023-01-13T23:59:14.729Z,6.9
